This is the latest recevied weather packets stored in our database for station/object K4AXV-13. If no packets are shown the sender has not sent any weather packets the latest 1 day(s).
| Time | Temp. | Humidity | Pressure | Rain* | Wind** | Luminosity | Snow |
|---|---|---|---|---|---|---|---|
| 1778082947 | 30° C | - | - | 0 mm | 2.68 m/s, 342° | - | - |
| 1778081142 | 27.78° C | - | - | 0 mm | 0.89 m/s, 352° | - | - |
| 1778080843 | 27.22° C | - | - | 0 mm | 1.79 m/s, 4° | - | - |
| 1778079042 | 25.56° C | - | - | 0 mm | 1.34 m/s, 319° | - | - |
| 1778078143 | 24.44° C | - | - | 0 mm | 1.34 m/s, 326° | - | - |
| 1778078140 | 25° C | - | - | 0 mm | 1.34 m/s, 335° | - | - |
| 1778077241 | 24.44° C | - | - | 0 mm | 0 m/s | - | - |
| 1778077144 | 24.44° C | - | - | 0 mm | 0.89 m/s, 308° | - | - |
| 1778076454 | 23.89° C | - | - | 0 mm | 0.89 m/s, 312° | - | - |
| 1778076398 | 23.89° C | - | - | 0 mm | 0.89 m/s, 312° | - | - |
| 1778076338 | 23.89° C | - | - | 0 mm | 0.89 m/s, 312° | - | - |
| 1778075437 | 23.33° C | - | - | 0 mm | 0.45 m/s, 300° | - | - |
| 1778075188 | 23.33° C | - | - | 0 mm | 1.34 m/s, 239° | - | - |
| 1778074836 | 22.78° C | - | - | 0 mm | 0.89 m/s, 262° | - | - |
| 1778072742 | 21.67° C | - | - | 0 mm | 0 m/s | - | - |
| 1778072487 | 21.67° C | - | - | 0 mm | 0 m/s | - | - |
| 1778072433 | 21.67° C | - | - | 0 mm | 0 m/s | - | - |
| 1778071896 | 21.11° C | - | - | 0 mm | 0.45 m/s, 319° | - | - |
| 1778071530 | 21.11° C | - | - | 0 mm | 0 m/s | - | - |
| 1778071290 | 21.11° C | - | - | 0 mm | 0.45 m/s, 224° | - | - |
| 1778070079 | 20° C | - | - | 0 mm | 0 m/s | - | - |
| 1778070030 | 20° C | - | - | 0 mm | 0 m/s | - | - |
| 1778069728 | 20° C | - | - | 0 mm | 0.89 m/s, 304° | - | - |
| 1778069475 | 18.89° C | - | - | 0 mm | 0 m/s | - | - |
| 1778069128 | 17.78° C | - | - | 0 mm | 0 m/s | - | - |
* Rain latest hour (hover to see other rain measurements)
** Current wind speed in m/s (hover to see current wind gust speed)